sensor_id;sensor_type;location;lat;lon;timestamp;P1;durP1;ratioP1;P2;durP2;ratioP2
67195;SDS011;54122;53.538;49.366;2023-05-10T00:01:39;4.85;;;0.60;;
67195;SDS011;54122;53.538;49.366;2023-05-10T00:04:05;2.22;;;0.70;;
67195;SDS011;54122;53.538;49.366;2023-05-10T00:06:32;4.88;;;0.60;;
67195;SDS011;54122;53.538;49.366;2023-05-10T00:08:58;3.45;;;0.50;;
67195;SDS011;54122;53.538;49.366;2023-05-10T00:11:24;5.65;;;1.00;;
67195;SDS011;54122;53.538;49.366;2023-05-10T00:13:51;7.80;;;0.60;;
67195;SDS011;54122;53.538;49.366;2023-05-10T00:16:17;2.47;;;0.85;;
67195;SDS011;54122;53.538;49.366;2023-05-10T00:18:43;1.20;;;0.60;;
67195;SDS011;54122;53.538;49.366;2023-05-10T00:21:09;3.95;;;0.60;;
67195;SDS011;54122;53.538;49.366;2023-05-10T00:23:36;2.42;;;0.63;;
67195;SDS011;54122;53.538;49.366;2023-05-10T00:26:03;3.78;;;0.70;;
67195;SDS011;54122;53.538;49.366;2023-05-10T00:28:30;2.35;;;0.70;;
67195;SDS011;54122;53.538;49.366;2023-05-10T00:30:57;1.08;;;0.40;;
67195;SDS011;54122;53.538;49.366;2023-05-10T00:33:23;4.32;;;0.57;;
67195;SDS011;54122;53.538;49.366;2023-05-10T00:35:49;2.95;;;0.52;;
67195;SDS011;54122;53.538;49.366;2023-05-10T00:38:16;2.45;;;0.68;;
67195;SDS011;54122;53.538;49.366;2023-05-10T00:40:43;2.47;;;1.13;;
67195;SDS011;54122;53.538;49.366;2023-05-10T00:43:09;2.63;;;0.90;;
67195;SDS011;54122;53.538;49.366;2023-05-10T00:45:36;1.63;;;0.60;;
67195;SDS011;54122;53.538;49.366;2023-05-10T00:48:05;2.88;;;0.73;;
67195;SDS011;54122;53.538;49.366;2023-05-10T00:50:32;4.22;;;0.73;;
67195;SDS011;54122;53.538;49.366;2023-05-10T00:52:59;2.85;;;0.82;;
67195;SDS011;54122;53.538;49.366;2023-05-10T00:55:26;5.38;;;0.80;;
67195;SDS011;54122;53.538;49.366;2023-05-10T00:57:54;3.45;;;0.80;;
67195;SDS011;54122;53.538;49.366;2023-05-10T01:00:21;3.55;;;0.70;;
67195;SDS011;54122;53.538;49.366;2023-05-10T01:02:47;4.85;;;0.88;;
67195;SDS011;54122;53.538;49.366;2023-05-10T01:05:15;2.78;;;0.90;;
67195;SDS011;54122;53.538;49.366;2023-05-10T01:07:41;1.00;;;0.50;;
67195;SDS011;54122;53.538;49.366;2023-05-10T01:10:07;2.63;;;0.80;;
67195;SDS011;54122;53.538;49.366;2023-05-10T01:12:39;2.10;;;0.65;;
67195;SDS011;54122;53.538;49.366;2023-05-10T01:15:07;3.40;;;0.85;;
67195;SDS011;54122;53.538;49.366;2023-05-10T01:17:37;5.70;;;0.60;;
67195;SDS011;54122;53.538;49.366;2023-05-10T01:20:06;9.70;;;0.70;;
67195;SDS011;54122;53.538;49.366;2023-05-10T01:34:16;1.98;;;0.70;;
67195;SDS011;54122;53.538;49.366;2023-05-10T01:36:39;1.48;;;0.50;;
67195;SDS011;54122;53.538;49.366;2023-05-10T01:39:17;1.20;;;0.60;;
67195;SDS011;54122;53.538;49.366;2023-05-10T01:41:54;4.32;;;1.00;;
67195;SDS011;54122;53.538;49.366;2023-05-10T01:45:16;11.25;;;0.90;;
67195;SDS011;54122;53.538;49.366;2023-05-10T01:47:40;5.47;;;1.25;;
67195;SDS011;54122;53.538;49.366;2023-05-10T01:50:15;1.08;;;0.47;;
67195;SDS011;54122;53.538;49.366;2023-05-10T01:52:52;2.90;;;0.77;;
67195;SDS011;54122;53.538;49.366;2023-05-10T01:57:50;2.75;;;0.80;;
67195;SDS011;54122;53.538;49.366;2023-05-10T02:00:25;2.15;;;0.52;;
67195;SDS011;54122;53.538;49.366;2023-05-10T02:02:53;1.50;;;0.65;;
67195;SDS011;54122;53.538;49.366;2023-05-10T02:05:21;0.90;;;0.60;;
67195;SDS011;54122;53.538;49.366;2023-05-10T02:07:48;3.20;;;0.80;;
67195;SDS011;54122;53.538;49.366;2023-05-10T02:10:16;3.10;;;0.65;;
67195;SDS011;54122;53.538;49.366;2023-05-10T02:12:45;1.73;;;0.57;;
67195;SDS011;54122;53.538;49.366;2023-05-10T02:15:17;6.03;;;0.90;;
67195;SDS011;54122;53.538;49.366;2023-05-10T02:17:47;4.72;;;0.70;;
67195;SDS011;54122;53.538;49.366;2023-05-10T02:20:14;1.92;;;0.60;;
67195;SDS011;54122;53.538;49.366;2023-05-10T02:22:43;2.75;;;0.63;;
67195;SDS011;54122;53.538;49.366;2023-05-10T02:25:12;2.00;;;0.60;;
67195;SDS011;54122;53.538;49.366;2023-05-10T02:27:39;6.90;;;0.73;;
67195;SDS011;54122;53.538;49.366;2023-05-10T02:30:09;4.93;;;0.70;;
67195;SDS011;54122;53.538;49.366;2023-05-10T02:32:36;8.57;;;0.73;;
67195;SDS011;54122;53.538;49.366;2023-05-10T02:35:03;4.93;;;0.80;;
67195;SDS011;54122;53.538;49.366;2023-05-10T02:37:31;4.68;;;0.80;;
67195;SDS011;54122;53.538;49.366;2023-05-10T02:39:58;10.25;;;0.93;;
67195;SDS011;54122;53.538;49.366;2023-05-10T02:42:26;2.03;;;0.63;;
67195;SDS011;54122;53.538;49.366;2023-05-10T02:44:58;11.07;;;0.98;;
67195;SDS011;54122;53.538;49.366;2023-05-10T02:47:27;2.22;;;0.63;;
67195;SDS011;54122;53.538;49.366;2023-05-10T02:49:54;10.85;;;1.10;;
67195;SDS011;54122;53.538;49.366;2023-05-10T02:52:22;6.97;;;0.98;;
67195;SDS011;54122;53.538;49.366;2023-05-10T02:54:52;5.03;;;0.85;;
67195;SDS011;54122;53.538;49.366;2023-05-10T02:57:22;2.17;;;0.82;;
67195;SDS011;54122;53.538;49.366;2023-05-10T02:59:54;21.60;;;1.13;;
67195;SDS011;54122;53.538;49.366;2023-05-10T03:02:21;6.30;;;0.77;;
67195;SDS011;54122;53.538;49.366;2023-05-10T03:04:47;9.82;;;0.90;;
67195;SDS011;54122;53.538;49.366;2023-05-10T03:07:14;5.55;;;1.00;;
67195;SDS011;54122;53.538;49.366;2023-05-10T03:09:41;2.22;;;0.90;;
67195;SDS011;54122;53.538;49.366;2023-05-10T03:12:15;4.18;;;1.00;;
67195;SDS011;54122;53.538;49.366;2023-05-10T03:18:00;3.38;;;0.80;;
67195;SDS011;54122;53.538;49.366;2023-05-10T03:20:30;4.00;;;0.63;;
67195;SDS011;54122;53.538;49.366;2023-05-10T03:23:03;4.13;;;0.60;;
67195;SDS011;54122;53.538;49.366;2023-05-10T03:25:35;8.27;;;0.70;;
67195;SDS011;54122;53.538;49.366;2023-05-10T03:28:02;3.63;;;0.75;;
67195;SDS011;54122;53.538;49.366;2023-05-10T03:30:30;6.43;;;0.93;;
67195;SDS011;54122;53.538;49.366;2023-05-10T03:33:03;4.28;;;0.60;;
67195;SDS011;54122;53.538;49.366;2023-05-10T03:35:33;20.77;;;1.40;;
67195;SDS011;54122;53.538;49.366;2023-05-10T03:38:00;2.03;;;0.50;;
67195;SDS011;54122;53.538;49.366;2023-05-10T03:40:27;2.17;;;0.60;;
67195;SDS011;54122;53.538;49.366;2023-05-10T03:42:58;1.95;;;0.50;;
67195;SDS011;54122;53.538;49.366;2023-05-10T03:45:24;6.95;;;0.50;;
67195;SDS011;54122;53.538;49.366;2023-05-10T03:47:51;6.80;;;0.70;;
67195;SDS011;54122;53.538;49.366;2023-05-10T03:50:18;4.20;;;0.60;;
67195;SDS011;54122;53.538;49.366;2023-05-10T03:52:44;3.70;;;0.50;;
67195;SDS011;54122;53.538;49.366;2023-05-10T03:55:12;4.63;;;0.60;;
67195;SDS011;54122;53.538;49.366;2023-05-10T03:57:38;4.68;;;1.10;;
67195;SDS011;54122;53.538;49.366;2023-05-10T04:00:05;2.28;;;0.50;;
67195;SDS011;54122;53.538;49.366;2023-05-10T04:02:31;5.68;;;0.40;;
67195;SDS011;54122;53.538;49.366;2023-05-10T04:04:58;1.60;;;0.38;;
67195;SDS011;54122;53.538;49.366;2023-05-10T04:07:24;1.30;;;0.50;;
67195;SDS011;54122;53.538;49.366;2023-05-10T04:09:50;8.32;;;0.45;;
67195;SDS011;54122;53.538;49.366;2023-05-10T04:12:17;1.65;;;0.43;;
67195;SDS011;54122;53.538;49.366;2023-05-10T04:14:44;1.30;;;0.40;;
67195;SDS011;54122;53.538;49.366;2023-05-10T04:17:10;3.92;;;0.60;;
67195;SDS011;54122;53.538;49.366;2023-05-10T04:19:37;2.97;;;0.60;;
67195;SDS011;54122;53.538;49.366;2023-05-10T04:22:03;1.33;;;0.60;;
67195;SDS011;54122;53.538;49.366;2023-05-10T04:24:30;4.13;;;0.68;;
67195;SDS011;54122;53.538;49.366;2023-05-10T04:26:57;1.92;;;0.90;;
67195;SDS011;54122;53.538;49.366;2023-05-10T04:29:23;1.42;;;0.40;;
67195;SDS011;54122;53.538;49.366;2023-05-10T04:31:49;2.85;;;0.60;;
67195;SDS011;54122;53.538;49.366;2023-05-10T04:34:16;5.57;;;0.50;;
67195;SDS011;54122;53.538;49.366;2023-05-10T04:36:43;3.92;;;0.82;;
67195;SDS011;54122;53.538;49.366;2023-05-10T04:39:09;2.97;;;0.43;;
67195;SDS011;54122;53.538;49.366;2023-05-10T04:41:37;10.65;;;0.93;;
67195;SDS011;54122;53.538;49.366;2023-05-10T04:44:03;5.07;;;0.50;;
67195;SDS011;54122;53.538;49.366;2023-05-10T04:46:30;10.43;;;0.77;;
67195;SDS011;54122;53.538;49.366;2023-05-10T04:48:56;6.80;;;0.68;;
67195;SDS011;54122;53.538;49.366;2023-05-10T04:54:08;1.15;;;0.60;;
67195;SDS011;54122;53.538;49.366;2023-05-10T04:56:34;2.05;;;0.50;;
67195;SDS011;54122;53.538;49.366;2023-05-10T04:59:01;2.80;;;0.50;;
67195;SDS011;54122;53.538;49.366;2023-05-10T05:01:28;2.13;;;0.70;;
67195;SDS011;54122;53.538;49.366;2023-05-10T05:03:54;2.53;;;0.57;;
67195;SDS011;54122;53.538;49.366;2023-05-10T05:06:21;3.40;;;0.52;;
67195;SDS011;54122;53.538;49.366;2023-05-10T05:08:47;3.15;;;0.45;;
67195;SDS011;54122;53.538;49.366;2023-05-10T05:11:15;0.98;;;0.52;;
67195;SDS011;54122;53.538;49.366;2023-05-10T05:13:41;1.75;;;0.47;;
67195;SDS011;54122;53.538;49.366;2023-05-10T05:18:53;3.95;;;0.65;;
67195;SDS011;54122;53.538;49.366;2023-05-10T05:21:19;3.55;;;0.90;;
67195;SDS011;54122;53.538;49.366;2023-05-10T05:23:47;6.63;;;0.60;;
67195;SDS011;54122;53.538;49.366;2023-05-10T05:26:13;7.78;;;0.65;;
67195;SDS011;54122;53.538;49.366;2023-05-10T05:28:40;2.22;;;0.40;;
67195;SDS011;54122;53.538;49.366;2023-05-10T05:34:10;2.13;;;0.60;;
67195;SDS011;54122;53.538;49.366;2023-05-10T05:36:37;1.25;;;0.50;;
67195;SDS011;54122;53.538;49.366;2023-05-10T05:39:04;2.05;;;0.47;;
67195;SDS011;54122;53.538;49.366;2023-05-10T05:41:30;7.90;;;0.60;;
67195;SDS011;54122;53.538;49.366;2023-05-10T05:43:56;8.05;;;0.82;;
67195;SDS011;54122;53.538;49.366;2023-05-10T05:46:23;10.32;;;0.60;;
67195;SDS011;54122;53.538;49.366;2023-05-10T05:48:49;1.27;;;0.50;;
67195;SDS011;54122;53.538;49.366;2023-05-10T05:51:16;2.63;;;0.88;;
67195;SDS011;54122;53.538;49.366;2023-05-10T05:53:42;1.45;;;0.50;;
67195;SDS011;54122;53.538;49.366;2023-05-10T05:56:09;0.68;;;0.40;;
67195;SDS011;54122;53.538;49.366;2023-05-10T05:58:35;1.20;;;0.40;;
67195;SDS011;54122;53.538;49.366;2023-05-10T06:01:01;6.43;;;0.77;;
67195;SDS011;54122;53.538;49.366;2023-05-10T06:06:13;1.45;;;0.40;;
67195;SDS011;54122;53.538;49.366;2023-05-10T06:08:39;2.22;;;0.45;;
67195;SDS011;54122;53.538;49.366;2023-05-10T06:11:09;12.63;;;0.65;;
67195;SDS011;54122;53.538;49.366;2023-05-10T06:13:36;7.40;;;0.65;;
67195;SDS011;54122;53.538;49.366;2023-05-10T06:16:02;2.85;;;0.50;;
67195;SDS011;54122;53.538;49.366;2023-05-10T06:18:29;2.03;;;0.50;;
67195;SDS011;54122;53.538;49.366;2023-05-10T06:20:55;0.57;;;0.40;;
67195;SDS011;54122;53.538;49.366;2023-05-10T06:23:22;5.38;;;0.40;;
67195;SDS011;54122;53.538;49.366;2023-05-10T06:25:48;4.97;;;1.02;;
67195;SDS011;54122;53.538;49.366;2023-05-10T06:28:15;6.30;;;0.50;;
67195;SDS011;54122;53.538;49.366;2023-05-10T06:30:41;8.00;;;0.70;;
67195;SDS011;54122;53.538;49.366;2023-05-10T06:33:08;1.27;;;0.50;;
67195;SDS011;54122;53.538;49.366;2023-05-10T06:38:19;3.25;;;1.17;;
67195;SDS011;54122;53.538;49.366;2023-05-10T06:40:46;1.05;;;0.40;;
67195;SDS011;54122;53.538;49.366;2023-05-10T06:43:12;2.15;;;0.50;;
67195;SDS011;54122;53.538;49.366;2023-05-10T06:45:39;3.72;;;0.60;;
67195;SDS011;54122;53.538;49.366;2023-05-10T06:50:51;6.80;;;0.57;;
67195;SDS011;54122;53.538;49.366;2023-05-10T06:53:17;2.10;;;0.50;;
67195;SDS011;54122;53.538;49.366;2023-05-10T06:55:45;2.42;;;0.60;;
67195;SDS011;54122;53.538;49.366;2023-05-10T06:58:12;7.80;;;4.03;;
67195;SDS011;54122;53.538;49.366;2023-05-10T07:00:38;4.82;;;1.10;;
67195;SDS011;54122;53.538;49.366;2023-05-10T07:03:06;6.05;;;0.70;;
67195;SDS011;54122;53.538;49.366;2023-05-10T07:05:32;8.43;;;1.75;;
67195;SDS011;54122;53.538;49.366;2023-05-10T07:07:59;2.30;;;0.90;;
67195;SDS011;54122;53.538;49.366;2023-05-10T07:10:25;2.45;;;0.80;;
67195;SDS011;54122;53.538;49.366;2023-05-10T07:12:52;4.47;;;0.40;;
67195;SDS011;54122;53.538;49.366;2023-05-10T07:15:18;0.75;;;0.47;;
67195;SDS011;54122;53.538;49.366;2023-05-10T07:17:45;3.35;;;0.60;;
67195;SDS011;54122;53.538;49.366;2023-05-10T07:20:13;3.20;;;0.60;;
67195;SDS011;54122;53.538;49.366;2023-05-10T07:22:39;3.17;;;0.30;;
67195;SDS011;54122;53.538;49.366;2023-05-10T07:25:05;5.78;;;0.60;;
67195;SDS011;54122;53.538;49.366;2023-05-10T07:27:50;4.60;;;0.50;;
67195;SDS011;54122;53.538;49.366;2023-05-10T07:30:16;1.13;;;0.32;;
67195;SDS011;54122;53.538;49.366;2023-05-10T07:32:42;2.83;;;0.50;;
67195;SDS011;54122;53.538;49.366;2023-05-10T07:35:08;4.15;;;0.52;;
67195;SDS011;54122;53.538;49.366;2023-05-10T07:37:35;5.32;;;0.47;;
67195;SDS011;54122;53.538;49.366;2023-05-10T07:40:01;1.20;;;0.65;;
67195;SDS011;54122;53.538;49.366;2023-05-10T07:42:27;2.75;;;0.80;;
67195;SDS011;54122;53.538;49.366;2023-05-10T07:44:53;9.70;;;0.80;;
67195;SDS011;54122;53.538;49.366;2023-05-10T07:47:20;5.32;;;0.70;;
67195;SDS011;54122;53.538;49.366;2023-05-10T07:49:47;2.60;;;0.65;;
67195;SDS011;54122;53.538;49.366;2023-05-10T07:52:13;2.55;;;0.45;;
67195;SDS011;54122;53.538;49.366;2023-05-10T07:54:39;3.85;;;0.80;;
67195;SDS011;54122;53.538;49.366;2023-05-10T07:57:06;0.65;;;0.40;;
67195;SDS011;54122;53.538;49.366;2023-05-10T07:59:32;1.33;;;0.60;;
67195;SDS011;54122;53.538;49.366;2023-05-10T08:01:58;5.50;;;0.60;;
67195;SDS011;54122;53.538;49.366;2023-05-10T08:04:24;1.88;;;0.60;;
67195;SDS011;54122;53.538;49.366;2023-05-10T08:06:51;2.10;;;0.43;;
67195;SDS011;54122;53.538;49.366;2023-05-10T08:09:17;2.55;;;0.43;;
67195;SDS011;54122;53.538;49.366;2023-05-10T08:11:43;1.67;;;0.57;;
67195;SDS011;54122;53.538;49.366;2023-05-10T08:14:09;1.55;;;0.50;;
67195;SDS011;54122;53.538;49.366;2023-05-10T08:16:35;1.20;;;0.43;;
67195;SDS011;54122;53.538;49.366;2023-05-10T08:19:01;1.70;;;0.40;;
67195;SDS011;54122;53.538;49.366;2023-05-10T08:21:28;1.50;;;0.50;;
67195;SDS011;54122;53.538;49.366;2023-05-10T08:23:54;2.00;;;0.50;;
67195;SDS011;54122;53.538;49.366;2023-05-10T08:26:21;3.35;;;0.70;;
67195;SDS011;54122;53.538;49.366;2023-05-10T08:28:47;3.55;;;0.70;;
67195;SDS011;54122;53.538;49.366;2023-05-10T08:31:13;4.63;;;0.63;;
67195;SDS011;54122;53.538;49.366;2023-05-10T08:33:40;1.67;;;0.50;;
67195;SDS011;54122;53.538;49.366;2023-05-10T08:36:06;2.05;;;0.70;;
67195;SDS011;54122;53.538;49.366;2023-05-10T08:38:32;5.75;;;0.80;;
67195;SDS011;54122;53.538;49.366;2023-05-10T08:40:58;2.22;;;0.70;;
67195;SDS011;54122;53.538;49.366;2023-05-10T08:43:45;5.60;;;0.77;;
67195;SDS011;54122;53.538;49.366;2023-05-10T08:46:16;3.97;;;0.90;;
67195;SDS011;54122;53.538;49.366;2023-05-10T08:48:44;6.60;;;0.77;;
67195;SDS011;54122;53.538;49.366;2023-05-10T08:51:13;5.90;;;0.98;;
67195;SDS011;54122;53.538;49.366;2023-05-10T08:53:43;2.30;;;1.00;;
67195;SDS011;54122;53.538;49.366;2023-05-10T08:56:10;0.70;;;0.50;;
67195;SDS011;54122;53.538;49.366;2023-05-10T08:58:37;3.25;;;0.70;;
67195;SDS011;54122;53.538;49.366;2023-05-10T09:01:04;3.10;;;0.80;;
67195;SDS011;54122;53.538;49.366;2023-05-10T09:03:31;3.67;;;0.80;;
67195;SDS011;54122;53.538;49.366;2023-05-10T09:05:57;2.60;;;0.90;;
67195;SDS011;54122;53.538;49.366;2023-05-10T09:08:24;3.25;;;1.10;;
67195;SDS011;54122;53.538;49.366;2023-05-10T09:10:51;5.30;;;1.80;;
67195;SDS011;54122;53.538;49.366;2023-05-10T09:13:18;4.75;;;1.70;;
67195;SDS011;54122;53.538;49.366;2023-05-10T09:15:46;9.63;;;1.95;;
67195;SDS011;54122;53.538;49.366;2023-05-10T09:18:13;3.88;;;1.00;;
67195;SDS011;54122;53.538;49.366;2023-05-10T09:20:40;7.82;;;1.27;;
67195;SDS011;54122;53.538;49.366;2023-05-10T09:23:06;5.93;;;1.27;;
67195;SDS011;54122;53.538;49.366;2023-05-10T09:25:33;15.48;;;1.88;;
67195;SDS011;54122;53.538;49.366;2023-05-10T09:27:59;6.90;;;2.33;;
67195;SDS011;54122;53.538;49.366;2023-05-10T09:30:45;7.57;;;2.92;;
67195;SDS011;54122;53.538;49.366;2023-05-10T09:33:20;6.32;;;2.90;;
67195;SDS011;54122;53.538;49.366;2023-05-10T09:35:46;7.88;;;2.80;;
67195;SDS011;54122;53.538;49.366;2023-05-10T09:38:16;6.07;;;2.47;;
67195;SDS011;54122;53.538;49.366;2023-05-10T09:40:43;5.40;;;2.67;;
67195;SDS011;54122;53.538;49.366;2023-05-10T09:43:20;5.75;;;2.72;;
67195;SDS011;54122;53.538;49.366;2023-05-10T09:45:46;6.68;;;2.80;;
67195;SDS011;54122;53.538;49.366;2023-05-10T09:48:16;7.95;;;2.38;;
67195;SDS011;54122;53.538;49.366;2023-05-10T09:50:43;5.90;;;2.45;;
67195;SDS011;54122;53.538;49.366;2023-05-10T09:53:09;9.38;;;3.53;;
67195;SDS011;54122;53.538;49.366;2023-05-10T09:55:44;16.63;;;3.70;;
67195;SDS011;54122;53.538;49.366;2023-05-10T09:58:12;8.33;;;3.70;;
67195;SDS011;54122;53.538;49.366;2023-05-10T10:00:41;9.68;;;3.88;;
67195;SDS011;54122;53.538;49.366;2023-05-10T10:03:18;20.05;;;3.55;;
67195;SDS011;54122;53.538;49.366;2023-05-10T10:05:46;7.68;;;3.50;;
67195;SDS011;54122;53.538;49.366;2023-05-10T10:08:13;10.70;;;3.63;;
67195;SDS011;54122;53.538;49.366;2023-05-10T10:10:41;5.70;;;3.03;;
67195;SDS011;54122;53.538;49.366;2023-05-10T10:13:09;3.80;;;2.05;;
67195;SDS011;54122;53.538;49.366;2023-05-10T10:15:35;3.60;;;2.28;;
67195;SDS011;54122;53.538;49.366;2023-05-10T10:18:02;6.47;;;2.90;;
67195;SDS011;54122;53.538;49.366;2023-05-10T10:20:30;9.15;;;2.75;;
67195;SDS011;54122;53.538;49.366;2023-05-10T10:22:57;4.97;;;2.20;;
67195;SDS011;54122;53.538;49.366;2023-05-10T10:25:23;6.78;;;2.22;;
67195;SDS011;54122;53.538;49.366;2023-05-10T10:36:08;7.18;;;3.53;;
67195;SDS011;54122;53.538;49.366;2023-05-10T10:41:10;13.00;;;3.63;;
67195;SDS011;54122;53.538;49.366;2023-05-10T10:47:20;11.50;;;3.70;;
67195;SDS011;54122;53.538;49.366;2023-05-10T10:54:59;12.05;;;4.95;;
67195;SDS011;54122;53.538;49.366;2023-05-10T10:57:27;9.70;;;4.30;;
67195;SDS011;54122;53.538;49.366;2023-05-10T11:11:01;11.05;;;4.13;;
67195;SDS011;54122;53.538;49.366;2023-05-10T11:13:30;9.13;;;3.70;;
67195;SDS011;54122;53.538;49.366;2023-05-10T11:15:58;10.50;;;4.03;;
67195;SDS011;54122;53.538;49.366;2023-05-10T11:18:35;8.75;;;4.18;;
67195;SDS011;54122;53.538;49.366;2023-05-10T11:21:03;13.43;;;4.13;;
67195;SDS011;54122;53.538;49.366;2023-05-10T11:26:24;5.50;;;3.72;;
67195;SDS011;54122;53.538;49.366;2023-05-10T11:28:52;11.77;;;2.85;;
67195;SDS011;54122;53.538;49.366;2023-05-10T11:31:22;9.65;;;2.50;;
67195;SDS011;54122;53.538;49.366;2023-05-10T11:33:53;6.72;;;2.40;;
67195;SDS011;54122;53.538;49.366;2023-05-10T11:36:21;7.38;;;2.25;;
67195;SDS011;54122;53.538;49.366;2023-05-10T11:38:49;14.27;;;3.38;;
67195;SDS011;54122;53.538;49.366;2023-05-10T11:41:17;7.40;;;2.95;;
67195;SDS011;54122;53.538;49.366;2023-05-10T11:43:45;3.85;;;2.33;;
67195;SDS011;54122;53.538;49.366;2023-05-10T11:46:31;5.28;;;3.13;;
67195;SDS011;54122;53.538;49.366;2023-05-10T11:48:58;12.18;;;3.50;;
67195;SDS011;54122;53.538;49.366;2023-05-10T11:51:35;9.07;;;3.33;;
67195;SDS011;54122;53.538;49.366;2023-05-10T11:56:46;6.25;;;2.97;;
67195;SDS011;54122;53.538;49.366;2023-05-10T11:59:13;10.45;;;3.10;;
67195;SDS011;54122;53.538;49.366;2023-05-10T12:01:41;5.28;;;2.90;;
67195;SDS011;54122;53.538;49.366;2023-05-10T12:04:07;7.88;;;2.80;;
67195;SDS011;54122;53.538;49.366;2023-05-10T12:06:35;17.55;;;3.65;;
67195;SDS011;54122;53.538;49.366;2023-05-10T12:09:06;5.88;;;2.72;;
67195;SDS011;54122;53.538;49.366;2023-05-10T12:11:38;5.93;;;2.70;;
67195;SDS011;54122;53.538;49.366;2023-05-10T12:14:05;8.45;;;3.00;;
67195;SDS011;54122;53.538;49.366;2023-05-10T12:16:32;10.13;;;2.83;;
67195;SDS011;54122;53.538;49.366;2023-05-10T12:18:58;12.15;;;3.25;;
67195;SDS011;54122;53.538;49.366;2023-05-10T12:21:27;8.70;;;2.85;;
67195;SDS011;54122;53.538;49.366;2023-05-10T12:23:56;9.60;;;3.40;;
67195;SDS011;54122;53.538;49.366;2023-05-10T12:26:25;8.85;;;3.15;;
67195;SDS011;54122;53.538;49.366;2023-05-10T12:28:55;13.50;;;3.17;;
67195;SDS011;54122;53.538;49.366;2023-05-10T12:31:53;9.13;;;3.20;;
67195;SDS011;54122;53.538;49.366;2023-05-10T12:34:30;10.82;;;3.30;;
67195;SDS011;54122;53.538;49.366;2023-05-10T12:37:01;7.70;;;3.08;;
67195;SDS011;54122;53.538;49.366;2023-05-10T12:39:38;7.45;;;3.15;;
67195;SDS011;54122;53.538;49.366;2023-05-10T12:42:05;7.10;;;3.33;;
67195;SDS011;54122;53.538;49.366;2023-05-10T12:44:32;11.05;;;3.13;;
67195;SDS011;54122;53.538;49.366;2023-05-10T12:46:58;8.60;;;3.72;;
67195;SDS011;54122;53.538;49.366;2023-05-10T12:49:25;15.05;;;3.70;;
67195;SDS011;54122;53.538;49.366;2023-05-10T12:51:51;7.32;;;3.35;;
67195;SDS011;54122;53.538;49.366;2023-05-10T12:54:17;12.80;;;3.22;;
67195;SDS011;54122;53.538;49.366;2023-05-10T12:59:29;8.18;;;3.00;;
67195;SDS011;54122;53.538;49.366;2023-05-10T13:01:56;11.63;;;3.03;;
67195;SDS011;54122;53.538;49.366;2023-05-10T13:04:23;5.13;;;2.72;;
67195;SDS011;54122;53.538;49.366;2023-05-10T13:06:50;11.43;;;2.78;;
67195;SDS011;54122;53.538;49.366;2023-05-10T13:09:16;9.50;;;3.00;;
67195;SDS011;54122;53.538;49.366;2023-05-10T13:14:28;9.95;;;3.20;;
67195;SDS011;54122;53.538;49.366;2023-05-10T13:16:55;6.30;;;3.42;;
67195;SDS011;54122;53.538;49.366;2023-05-10T13:19:23;4.63;;;2.95;;
67195;SDS011;54122;53.538;49.366;2023-05-10T13:21:49;7.45;;;2.80;;
67195;SDS011;54122;53.538;49.366;2023-05-10T13:24:15;9.82;;;3.10;;
67195;SDS011;54122;53.538;49.366;2023-05-10T13:26:42;5.18;;;2.17;;
67195;SDS011;54122;53.538;49.366;2023-05-10T13:29:09;7.50;;;1.98;;
67195;SDS011;54122;53.538;49.366;2023-05-10T13:31:35;14.25;;;1.40;;
67195;SDS011;54122;53.538;49.366;2023-05-10T13:34:01;11.98;;;1.65;;
67195;SDS011;54122;53.538;49.366;2023-05-10T13:36:30;6.28;;;1.10;;
67195;SDS011;54122;53.538;49.366;2023-05-10T13:38:56;2.03;;;1.00;;
67195;SDS011;54122;53.538;49.366;2023-05-10T13:41:23;1.55;;;0.85;;
67195;SDS011;54122;53.538;49.366;2023-05-10T13:43:49;5.72;;;0.93;;
67195;SDS011;54122;53.538;49.366;2023-05-10T13:46:15;3.25;;;0.88;;
67195;SDS011;54122;53.538;49.366;2023-05-10T13:48:41;4.97;;;0.90;;
67195;SDS011;54122;53.538;49.366;2023-05-10T13:51:08;17.55;;;1.35;;
67195;SDS011;54122;53.538;49.366;2023-05-10T13:53:34;2.60;;;0.82;;
67195;SDS011;54122;53.538;49.366;2023-05-10T13:56:00;13.02;;;1.10;;
67195;SDS011;54122;53.538;49.366;2023-05-10T13:58:28;10.60;;;1.65;;
67195;SDS011;54122;53.538;49.366;2023-05-10T14:00:55;9.10;;;1.10;;
67195;SDS011;54122;53.538;49.366;2023-05-10T14:03:21;4.90;;;1.20;;
67195;SDS011;54122;53.538;49.366;2023-05-10T14:05:47;10.50;;;1.33;;
67195;SDS011;54122;53.538;49.366;2023-05-10T14:08:13;8.68;;;0.93;;
67195;SDS011;54122;53.538;49.366;2023-05-10T14:10:41;15.57;;;0.98;;
67195;SDS011;54122;53.538;49.366;2023-05-10T14:13:07;2.67;;;0.85;;
67195;SDS011;54122;53.538;49.366;2023-05-10T14:15:33;7.20;;;0.90;;
67195;SDS011;54122;53.538;49.366;2023-05-10T14:17:59;10.23;;;1.30;;
67195;SDS011;54122;53.538;49.366;2023-05-10T14:20:26;6.18;;;0.90;;
67195;SDS011;54122;53.538;49.366;2023-05-10T14:22:52;12.75;;;1.67;;
67195;SDS011;54122;53.538;49.366;2023-05-10T14:25:18;1.15;;;0.60;;
67195;SDS011;54122;53.538;49.366;2023-05-10T14:27:44;4.50;;;0.63;;
67195;SDS011;54122;53.538;49.366;2023-05-10T14:30:11;7.07;;;0.90;;
67195;SDS011;54122;53.538;49.366;2023-05-10T14:32:37;9.02;;;0.77;;
67195;SDS011;54122;53.538;49.366;2023-05-10T14:35:04;15.57;;;1.27;;
67195;SDS011;54122;53.538;49.366;2023-05-10T14:37:31;14.55;;;1.00;;
67195;SDS011;54122;53.538;49.366;2023-05-10T14:39:57;3.20;;;0.63;;
67195;SDS011;54122;53.538;49.366;2023-05-10T14:42:24;2.70;;;0.65;;
67195;SDS011;54122;53.538;49.366;2023-05-10T14:44:50;8.23;;;0.77;;
67195;SDS011;54122;53.538;49.366;2023-05-10T14:47:16;8.73;;;0.75;;
67195;SDS011;54122;53.538;49.366;2023-05-10T14:49:42;1.98;;;0.60;;
67195;SDS011;54122;53.538;49.366;2023-05-10T14:52:08;2.10;;;0.50;;
67195;SDS011;54122;53.538;49.366;2023-05-10T14:54:35;2.17;;;0.63;;
67195;SDS011;54122;53.538;49.366;2023-05-10T14:57:01;8.63;;;0.90;;
67195;SDS011;54122;53.538;49.366;2023-05-10T14:59:27;1.50;;;0.70;;
67195;SDS011;54122;53.538;49.366;2023-05-10T15:01:53;7.72;;;1.05;;
67195;SDS011;54122;53.538;49.366;2023-05-10T15:04:20;3.70;;;0.63;;
67195;SDS011;54122;53.538;49.366;2023-05-10T15:06:46;6.78;;;1.00;;
67195;SDS011;54122;53.538;49.366;2023-05-10T15:09:12;5.72;;;1.10;;
67195;SDS011;54122;53.538;49.366;2023-05-10T15:11:39;2.50;;;0.75;;
67195;SDS011;54122;53.538;49.366;2023-05-10T15:14:05;3.53;;;0.90;;
67195;SDS011;54122;53.538;49.366;2023-05-10T15:16:31;6.95;;;0.70;;
67195;SDS011;54122;53.538;49.366;2023-05-10T15:18:57;6.68;;;0.68;;
67195;SDS011;54122;53.538;49.366;2023-05-10T15:21:24;4.30;;;0.82;;
67195;SDS011;54122;53.538;49.366;2023-05-10T15:23:50;2.45;;;0.70;;
67195;SDS011;54122;53.538;49.366;2023-05-10T15:26:16;10.52;;;0.90;;
67195;SDS011;54122;53.538;49.366;2023-05-10T15:28:42;8.80;;;1.00;;
67195;SDS011;54122;53.538;49.366;2023-05-10T15:31:09;4.82;;;1.10;;
67195;SDS011;54122;53.538;49.366;2023-05-10T15:33:36;2.92;;;0.70;;
67195;SDS011;54122;53.538;49.366;2023-05-10T15:36:03;3.30;;;0.60;;
67195;SDS011;54122;53.538;49.366;2023-05-10T15:38:30;10.05;;;0.77;;
67195;SDS011;54122;53.538;49.366;2023-05-10T15:40:56;1.88;;;0.70;;
67195;SDS011;54122;53.538;49.366;2023-05-10T15:43:23;3.30;;;0.93;;
67195;SDS011;54122;53.538;49.366;2023-05-10T15:45:49;2.38;;;0.80;;
67195;SDS011;54122;53.538;49.366;2023-05-10T15:48:15;3.33;;;1.02;;
67195;SDS011;54122;53.538;49.366;2023-05-10T15:50:42;1.63;;;0.60;;
67195;SDS011;54122;53.538;49.366;2023-05-10T15:53:08;3.42;;;0.90;;